Forside
METAR-TAF:

METAR-TAF

Lufthavne :

John H. Batten Airport

Racine, Wisconsin, USA

Breddekreds: 42-45-31N, længdekreds: 087-49-04W, højde: 205 m

Aktuelle vejr

Denne rapport blev lavet for 55 minutter siden, kl. 18:53 UTC
Vind 11 kt fra sydvest med vindstød på up til 20 kt
Temperatur 6°C
Fugtighed 49%
Tryk 1021 hPa
Sigt: 16.1 km
skyfri

METAR: KRAC 221853Z AUTO 23011G20KT 10SM CLR 06/M04 A3014 RMK AO2 SLP212 T00561039

Tid: 13:48 (19:48 UTC)


TAF: fraværende

Vejrobservationer og prognoser fra mere end 4000 lufthavne (METAR og TAF).

De gule og røde prikker repræsenterer de meteorologiske stationer.

Flyt musen over at se navnet på stationen.

Så klik over at se vejr observationer og prognoser.

At skifte det kort: Klik på de grønne knapper med et sort kors for at zoome ind; på den grønne knap med en bindestreg for at zoome ud; eller på de grønne pile for tilstødende kort.


METAR-TAF: